createdAt,value
2023-09-27T00:02:36.662Z,100850.00
2023-09-27T00:16:05.127Z,100862.00
2023-09-27T00:19:21.040Z,100853.00
2023-09-27T00:26:01.674Z,100830.00
2023-09-27T00:35:37.238Z,100843.00
2023-09-27T00:38:37.375Z,100854.00
2023-09-27T00:41:38.005Z,100857.00
2023-09-27T00:44:47.897Z,100864.00
2023-09-27T00:47:43.895Z,100852.00
2023-09-27T00:50:28.463Z,100870.00
2023-09-27T00:53:44.369Z,100866.00
2023-09-27T00:59:57.051Z,100881.00
2023-09-27T01:02:31.885Z,100892.00
2023-09-27T01:05:11.239Z,100891.00
2023-09-27T01:07:45.684Z,100895.00
2023-09-27T01:10:19.504Z,100902.00
2023-09-27T01:12:53.436Z,100892.00
2023-09-27T01:15:30.305Z,100894.00
2023-09-27T01:18:04.724Z,100898.00
2023-09-27T01:20:39.122Z,100900.00
2023-09-27T01:23:15.504Z,100910.00
2023-09-27T01:25:56.937Z,100910.00
2023-09-27T01:28:36.089Z,100911.00
2023-09-27T01:31:10.056Z,100910.00
2023-09-27T01:33:43.923Z,100915.00
2023-09-27T01:36:17.642Z,100914.00
2023-09-27T01:38:53.359Z,100911.00
2023-09-27T01:41:27.424Z,100901.00
2023-09-27T01:44:01.131Z,100891.00
2023-09-27T01:46:35.017Z,100894.00
2023-09-27T01:49:08.730Z,100906.00
2023-09-27T01:51:42.619Z,100907.00
2023-09-27T01:54:18.279Z,100919.00
2023-09-27T01:56:51.746Z,100924.00
2023-09-27T01:59:25.923Z,100922.00
2023-09-27T02:01:59.815Z,100930.00
2023-09-27T02:04:33.760Z,100908.00
2023-09-27T02:07:07.714Z,100923.00
2023-09-27T02:09:43.035Z,100917.00
2023-09-27T02:12:16.701Z,100907.00
2023-09-27T02:14:50.296Z,100906.00
2023-09-27T02:17:23.875Z,100915.00
2023-09-27T02:19:58.025Z,100916.00
2023-09-27T02:22:32.231Z,100906.00
2023-09-27T02:25:11.464Z,100914.00
2023-09-27T02:27:45.733Z,100921.00
2023-09-27T02:30:19.382Z,100927.00
2023-09-27T02:32:54.044Z,100918.00
2023-09-27T02:35:28.957Z,100912.00
2023-09-27T02:38:03.225Z,100920.00
2023-09-27T02:40:38.231Z,100907.00
2023-09-27T02:43:11.830Z,100913.00
2023-09-27T02:45:46.866Z,100907.00
2023-09-27T02:48:20.515Z,100883.00
2023-09-27T02:50:54.983Z,100892.00
2023-09-27T02:53:28.856Z,100884.00
2023-09-27T02:56:06.416Z,100883.00
2023-09-27T02:58:40.418Z,100881.00
2023-09-27T03:01:13.850Z,100860.00
2023-09-27T03:03:47.885Z,100856.00
2023-09-27T03:06:21.263Z,100858.00
2023-09-27T03:08:55.298Z,100866.00
2023-09-27T03:11:30.594Z,100852.00
2023-09-27T03:14:04.638Z,100852.00
2023-09-27T03:16:38.679Z,100856.00
2023-09-27T03:19:12.723Z,100854.00
2023-09-27T03:21:45.992Z,100855.00
2023-09-27T03:24:19.866Z,100856.00
2023-09-27T03:26:55.105Z,100862.00
2023-09-27T03:29:29.039Z,100859.00
2023-09-27T03:32:02.927Z,100856.00
2023-09-27T03:34:37.924Z,100858.00
2023-09-27T03:37:11.665Z,100852.00
2023-09-27T03:39:45.264Z,100872.00
2023-09-27T03:42:20.327Z,100867.00
2023-09-27T03:44:55.698Z,100862.00
2023-09-27T03:47:31.267Z,100871.00
2023-09-27T03:50:05.531Z,100863.00
2023-09-27T03:52:39.029Z,100843.00
2023-09-27T03:55:14.036Z,100852.00
2023-09-27T03:57:49.207Z,100831.00
2023-09-27T04:00:24.852Z,100836.00
2023-09-27T04:02:59.771Z,100839.00
2023-09-27T04:05:35.668Z,100839.00
2023-09-27T04:08:09.874Z,100849.00
2023-09-27T04:10:43.426Z,100847.00
2023-09-27T04:13:18.310Z,100850.00
2023-09-27T04:15:52.279Z,100847.00
2023-09-27T04:18:26.118Z,100859.00
2023-09-27T04:21:08.806Z,100868.00
2023-09-27T04:23:44.196Z,100875.00
2023-09-27T04:26:17.772Z,100867.00
2023-09-27T04:28:53.642Z,100864.00
2023-09-27T04:31:29.371Z,100858.00
2023-09-27T04:34:03.030Z,100870.00
2023-09-27T04:36:37.079Z,100868.00
2023-09-27T04:39:12.389Z,100867.00
2023-09-27T04:41:47.557Z,100879.00
2023-09-27T04:44:23.048Z,100882.00
2023-09-27T04:46:56.796Z,100879.00
2023-09-27T04:49:30.572Z,100880.00
2023-09-27T04:52:04.366Z,100879.00
2023-09-27T04:54:38.232Z,100896.00
2023-09-27T04:57:11.785Z,100899.00
2023-09-27T04:59:47.055Z,100893.00
2023-09-27T05:02:21.014Z,100888.00
2023-09-27T05:04:54.778Z,100883.00
2023-09-27T05:07:28.692Z,100885.00
2023-09-27T05:10:02.520Z,100883.00
2023-09-27T05:12:36.308Z,100888.00
2023-09-27T05:15:12.632Z,100883.00
2023-09-27T05:17:47.644Z,100883.00
2023-09-27T05:20:21.492Z,100880.00
2023-09-27T05:22:55.382Z,100885.00
2023-09-27T05:25:29.789Z,100893.00
2023-09-27T05:28:03.594Z,100888.00
2023-09-27T05:30:39.258Z,100882.00
2023-09-27T05:33:12.750Z,100881.00
2023-09-27T05:35:46.925Z,100892.00
2023-09-27T05:38:22.053Z,100883.00
2023-09-27T05:40:55.994Z,100880.00
2023-09-27T05:43:29.540Z,100883.00
2023-09-27T05:46:04.948Z,100878.00
2023-09-27T05:48:39.002Z,100883.00
2023-09-27T05:51:12.766Z,100876.00
2023-09-27T05:53:48.310Z,100886.00
2023-09-27T05:56:22.272Z,100902.00
2023-09-27T05:58:56.297Z,100903.00
2023-09-27T06:01:33.247Z,100909.00
2023-09-27T06:04:07.659Z,100904.00
2023-09-27T06:06:41.632Z,100901.00
2023-09-27T06:09:15.657Z,100903.00
2023-09-27T06:11:49.727Z,100892.00
2023-09-27T06:14:23.347Z,100888.00
2023-09-27T06:16:59.439Z,100896.00
2023-09-27T06:19:33.529Z,100907.00
2023-09-27T06:22:07.944Z,100921.00
2023-09-27T06:24:43.520Z,100923.00
2023-09-27T06:27:17.954Z,100928.00
2023-09-27T06:29:51.856Z,100934.00
2023-09-27T06:32:27.451Z,100912.00
2023-09-27T06:35:01.145Z,100913.00
2023-09-27T06:37:34.775Z,100916.00
2023-09-27T06:40:10.535Z,100916.00
2023-09-27T06:42:44.369Z,100904.00
2023-09-27T06:45:18.433Z,100916.00
2023-09-27T06:47:53.634Z,100902.00
2023-09-27T06:50:27.693Z,100906.00
2023-09-27T06:53:15.781Z,100910.00
2023-09-27T06:55:55.296Z,100926.00
2023-09-27T06:58:29.812Z,100930.00
2023-09-27T07:01:03.564Z,100925.00
2023-09-27T07:03:39.346Z,100926.00
2023-09-27T07:06:13.115Z,100921.00
2023-09-27T07:08:53.550Z,100895.00
2023-09-27T07:11:27.430Z,100900.00
2023-09-27T07:14:01.616Z,100901.00
2023-09-27T07:16:43.336Z,100901.00
2023-09-27T07:19:25.938Z,100898.00
2023-09-27T07:22:00.496Z,100902.00
2023-09-27T07:24:34.573Z,100899.00
2023-09-27T07:27:08.160Z,100906.00
2023-09-27T07:29:42.835Z,100903.00
2023-09-27T07:32:17.197Z,100909.00
2023-09-27T07:34:54.535Z,100896.00
2023-09-27T07:37:28.422Z,100877.00
2023-09-27T07:40:02.458Z,100890.00
2023-09-27T07:42:36.175Z,100902.00
2023-09-27T07:45:15.559Z,100914.00
2023-09-27T07:47:51.522Z,100905.00
2023-09-27T07:50:29.736Z,100909.00
2023-09-27T07:53:05.316Z,100910.00
2023-09-27T07:55:48.112Z,100910.00
2023-09-27T07:58:22.381Z,100895.00
2023-09-27T08:00:56.053Z,100902.00
2023-09-27T08:03:29.943Z,100907.00
2023-09-27T08:06:05.779Z,100900.00
2023-09-27T08:08:39.322Z,100907.00
2023-09-27T08:11:14.755Z,100896.00
2023-09-27T08:13:48.868Z,100885.00
2023-09-27T08:16:22.478Z,100886.00
2023-09-27T08:18:57.240Z,100883.00
2023-09-27T08:21:32.070Z,100880.00
2023-09-27T08:24:06.082Z,100875.00
2023-09-27T08:26:40.021Z,100878.00
2023-09-27T08:29:15.014Z,100877.00
2023-09-27T08:31:49.696Z,100889.00
2023-09-27T08:34:23.431Z,100890.00
2023-09-27T08:36:59.367Z,100889.00
2023-09-27T08:39:33.494Z,100883.00
2023-09-27T08:42:07.610Z,100886.00
2023-09-27T08:44:42.316Z,100881.00
2023-09-27T08:47:17.286Z,100878.00
2023-09-27T08:49:52.025Z,100872.00
2023-09-27T08:52:28.417Z,100867.00
2023-09-27T08:55:05.269Z,100877.00
2023-09-27T08:57:40.704Z,100867.00
2023-09-27T09:00:21.605Z,100861.00
2023-09-27T09:03:00.389Z,100859.00
2023-09-27T09:05:34.503Z,100866.00
2023-09-27T09:08:10.555Z,100862.00
2023-09-27T09:10:47.178Z,100863.00
2023-09-27T09:13:24.390Z,100859.00
2023-09-27T09:15:58.612Z,100851.00
2023-09-27T09:18:34.613Z,100844.00
2023-09-27T09:21:15.490Z,100839.00
2023-09-27T09:23:51.298Z,100844.00
2023-09-27T09:26:31.036Z,100845.00
2023-09-27T09:29:09.251Z,100846.00
2023-09-27T09:31:54.728Z,100849.00
2023-09-27T09:34:27.326Z,100849.00
2023-09-27T09:37:01.336Z,100844.00
2023-09-27T09:39:37.456Z,100847.00
2023-09-27T09:42:11.158Z,100834.00
2023-09-27T09:44:44.789Z,100827.00
2023-09-27T09:47:18.731Z,100832.00
2023-09-27T09:49:52.456Z,100835.00
2023-09-27T09:52:31.082Z,100854.00
2023-09-27T09:55:24.042Z,100852.00
2023-09-27T09:58:22.889Z,100846.00
2023-09-27T10:00:59.272Z,100819.00
2023-09-27T10:03:35.696Z,100827.00
2023-09-27T10:06:12.285Z,100821.00
2023-09-27T10:08:49.204Z,100829.00
2023-09-27T10:11:26.253Z,100836.00
2023-09-27T10:14:01.488Z,100833.00
2023-09-27T10:16:36.067Z,100836.00
2023-09-27T10:19:09.609Z,100824.00
2023-09-27T10:22:06.442Z,100822.00
2023-09-27T10:24:45.208Z,100831.00
2023-09-27T10:27:20.227Z,100838.00
2023-09-27T10:30:23.028Z,100831.00
2023-09-27T10:33:34.336Z,100821.00
2023-09-27T10:36:34.313Z,100826.00
2023-09-27T10:39:07.937Z,100828.00
2023-09-27T10:41:49.920Z,100823.00
2023-09-27T10:44:33.422Z,100825.00
2023-09-27T10:47:10.469Z,100830.00
2023-09-27T10:49:44.756Z,100835.00
2023-09-27T10:52:20.046Z,100832.00
2023-09-27T10:54:53.709Z,100831.00
2023-09-27T10:57:28.168Z,100831.00
2023-09-27T11:00:05.738Z,100814.00
2023-09-27T11:02:39.690Z,100809.00
2023-09-27T11:05:13.554Z,100803.00
2023-09-27T11:07:49.534Z,100802.00
2023-09-27T11:10:34.430Z,100789.00
2023-09-27T11:13:11.859Z,100798.00
2023-09-27T11:15:47.627Z,100798.00
2023-09-27T11:18:21.257Z,100787.00
2023-09-27T11:20:54.980Z,100788.00
2023-09-27T11:23:28.913Z,100788.00
2023-09-27T11:26:06.105Z,100778.00
2023-09-27T11:28:40.042Z,100780.00
2023-09-27T11:31:24.556Z,100768.00
2023-09-27T11:34:14.373Z,100758.00
2023-09-27T11:36:49.661Z,100766.00
2023-09-27T11:39:30.653Z,100760.00
2023-09-27T11:42:04.814Z,100752.00
2023-09-27T11:44:39.079Z,100752.00
2023-09-27T11:47:14.904Z,100742.00
2023-09-27T11:49:51.953Z,100752.00
2023-09-27T11:52:25.492Z,100751.00
2023-09-27T11:54:59.332Z,100745.00
2023-09-27T11:57:33.266Z,100744.00
2023-09-27T12:00:09.503Z,100740.00
2023-09-27T12:02:56.268Z,100733.00
2023-09-27T12:05:31.491Z,100733.00
2023-09-27T12:08:05.684Z,100734.00
2023-09-27T12:10:39.941Z,100727.00
2023-09-27T12:13:13.531Z,100723.00
2023-09-27T12:15:47.106Z,100717.00
2023-09-27T12:18:22.218Z,100710.00
2023-09-27T12:20:57.359Z,100706.00
2023-09-27T12:23:32.605Z,100710.00
2023-09-27T12:26:06.503Z,100700.00
2023-09-27T12:28:40.011Z,100693.00
2023-09-27T12:31:13.813Z,100655.00
2023-09-27T12:33:49.265Z,100697.00
2023-09-27T12:36:23.223Z,100693.00
2023-09-27T12:38:57.083Z,100687.00
2023-09-27T12:41:30.633Z,100692.00
2023-09-27T12:44:04.669Z,100685.00
2023-09-27T12:46:38.139Z,100683.00
2023-09-27T12:49:13.353Z,100682.00
2023-09-27T12:51:49.897Z,100674.00
2023-09-27T12:54:24.173Z,100676.00
2023-09-27T12:56:59.354Z,100674.00
2023-09-27T12:59:33.308Z,100671.00
2023-09-27T13:02:07.632Z,100665.00
2023-09-27T13:04:44.457Z,100667.00
2023-09-27T13:07:18.632Z,100654.00
2023-09-27T13:09:52.502Z,100654.00
2023-09-27T13:12:25.889Z,100647.00
2023-09-27T13:14:59.983Z,100647.00
2023-09-27T13:17:33.852Z,100642.00
2023-09-27T13:20:11.788Z,100643.00
2023-09-27T13:22:45.740Z,100645.00
2023-09-27T13:25:20.400Z,100627.00
2023-09-27T13:27:53.805Z,100638.00
2023-09-27T13:30:35.295Z,100630.00
2023-09-27T13:33:10.670Z,100632.00
2023-09-27T13:35:46.280Z,100636.00
2023-09-27T13:38:20.657Z,100618.00
2023-09-27T13:40:54.312Z,100628.00
2023-09-27T13:43:30.025Z,100624.00
2023-09-27T13:46:06.961Z,100620.00
2023-09-27T13:48:40.729Z,100616.00
2023-09-27T13:51:15.833Z,100625.00
2023-09-27T13:53:49.807Z,100624.00
2023-09-27T13:56:23.548Z,100616.00
2023-09-27T13:58:57.515Z,100618.00
2023-09-27T14:01:31.726Z,100622.00
2023-09-27T14:04:06.680Z,100614.00
2023-09-27T14:06:41.888Z,100616.00
2023-09-27T14:09:15.736Z,100602.00
2023-09-27T14:11:49.340Z,100606.00
2023-09-27T14:14:23.275Z,100605.00
2023-09-27T14:16:59.428Z,100603.00
2023-09-27T14:19:32.929Z,100601.00
2023-09-27T14:22:08.481Z,100608.00
2023-09-27T14:24:42.430Z,100580.00
2023-09-27T14:27:16.405Z,100605.00
2023-09-27T14:29:50.480Z,100592.00
2023-09-27T14:32:24.461Z,100594.00
2023-09-27T14:34:58.850Z,100592.00
2023-09-27T14:37:34.632Z,100580.00
2023-09-27T14:40:11.241Z,100592.00
2023-09-27T14:42:44.683Z,100571.00
2023-09-27T14:45:31.563Z,100587.00
2023-09-27T14:48:07.773Z,100586.00
2023-09-27T14:50:41.955Z,100569.00
2023-09-27T14:53:16.876Z,100576.00
2023-09-27T14:55:51.674Z,100572.00
2023-09-27T14:58:25.293Z,100563.00
2023-09-27T15:00:58.784Z,100576.00
2023-09-27T15:03:32.783Z,100560.00
2023-09-27T15:06:08.350Z,100571.00
2023-09-27T15:08:44.366Z,100574.00
2023-09-27T15:11:24.647Z,100578.00
2023-09-27T15:13:59.739Z,100578.00
2023-09-27T15:16:35.435Z,100576.00
2023-09-27T15:19:09.489Z,100576.00
2023-09-27T15:21:43.242Z,100577.00
2023-09-27T15:24:18.551Z,100577.00
2023-09-27T15:26:51.985Z,100574.00
2023-09-27T15:29:25.460Z,100549.00
2023-09-27T15:31:59.012Z,100574.00
2023-09-27T15:34:35.924Z,100572.00
2023-09-27T15:37:11.401Z,100574.00
2023-09-27T15:39:46.564Z,100571.00
2023-09-27T15:42:19.930Z,100559.00
2023-09-27T15:44:53.730Z,100560.00
2023-09-27T15:47:27.170Z,100565.00
2023-09-27T15:50:00.936Z,100561.00
2023-09-27T15:52:36.187Z,100571.00
2023-09-27T15:55:13.163Z,100534.00
2023-09-27T15:57:46.844Z,100548.00
2023-09-27T16:00:20.705Z,100545.00
2023-09-27T16:02:54.183Z,100541.00
2023-09-27T16:05:27.782Z,100528.00
2023-09-27T16:08:01.247Z,100505.00
2023-09-27T16:10:39.668Z,100532.00
2023-09-27T16:13:23.968Z,100540.00
2023-09-27T16:15:57.567Z,100547.00
2023-09-27T16:18:32.425Z,100530.00
2023-09-27T16:21:06.373Z,100527.00
2023-09-27T16:23:39.910Z,100525.00
2023-09-27T16:26:16.130Z,100530.00
2023-09-27T16:28:50.132Z,100528.00
2023-09-27T16:31:27.101Z,100524.00
2023-09-27T16:34:02.040Z,100534.00
2023-09-27T16:36:35.797Z,100528.00
2023-09-27T16:39:13.159Z,100529.00
2023-09-27T16:41:48.620Z,100528.00
2023-09-27T16:44:22.776Z,100527.00
2023-09-27T16:46:57.891Z,100532.00
2023-09-27T16:49:32.254Z,100517.00
2023-09-27T16:52:06.340Z,100529.00
2023-09-27T16:54:39.961Z,100530.00
2023-09-27T16:57:14.958Z,100532.00
2023-09-27T16:59:48.696Z,100525.00
2023-09-27T17:02:22.928Z,100525.00
2023-09-27T17:04:57.737Z,100525.00
2023-09-27T17:07:34.333Z,100526.00
2023-09-27T17:10:11.549Z,100531.00
2023-09-27T17:12:49.260Z,100533.00
2023-09-27T17:15:23.281Z,100525.00
2023-09-27T17:17:57.647Z,100521.00
2023-09-27T17:20:31.717Z,100500.00
2023-09-27T17:23:05.791Z,100511.00
2023-09-27T17:25:39.410Z,100511.00
2023-09-27T17:28:14.730Z,100509.00
2023-09-27T17:30:48.513Z,100507.00
2023-09-27T17:33:22.147Z,100498.00
2023-09-27T17:36:00.804Z,100514.00
2023-09-27T17:38:34.602Z,100506.00
2023-09-27T17:41:08.544Z,100498.00
2023-09-27T17:43:44.378Z,100499.00
2023-09-27T17:46:25.025Z,100490.00
2023-09-27T17:49:03.434Z,100486.00
2023-09-27T17:51:38.437Z,100475.00
2023-09-27T17:54:13.481Z,100474.00
2023-09-27T17:56:47.248Z,100463.00
2023-09-27T17:59:22.676Z,100466.00
2023-09-27T18:01:56.629Z,100463.00
2023-09-27T18:04:30.373Z,100462.00
2023-09-27T18:07:04.020Z,100467.00
2023-09-27T18:09:39.060Z,100460.00
2023-09-27T18:12:13.764Z,100462.00
2023-09-27T18:14:49.101Z,100465.00
2023-09-27T18:17:23.136Z,100466.00
2023-09-27T18:19:57.971Z,100464.00
2023-09-27T18:22:32.622Z,100461.00
2023-09-27T18:25:07.633Z,100457.00
2023-09-27T18:27:42.601Z,100462.00
2023-09-27T18:30:20.227Z,100467.00
2023-09-27T18:32:53.948Z,100475.00
2023-09-27T18:35:27.776Z,100476.00
2023-09-27T18:38:01.985Z,100476.00
2023-09-27T18:40:38.402Z,100482.00
2023-09-27T18:43:12.013Z,100476.00
2023-09-27T18:45:50.673Z,100480.00
2023-09-27T18:48:24.506Z,100485.00
2023-09-27T18:50:59.605Z,100476.00
2023-09-27T18:53:33.411Z,100480.00
2023-09-27T18:56:08.493Z,100482.00
2023-09-27T18:58:42.519Z,100475.00
2023-09-27T19:01:18.132Z,100473.00
2023-09-27T19:03:53.673Z,100464.00
2023-09-27T19:06:27.338Z,100464.00
2023-09-27T19:09:02.805Z,100457.00
2023-09-27T19:11:37.302Z,100451.00
2023-09-27T19:14:13.845Z,100444.00
2023-09-27T19:16:50.984Z,100447.00
2023-09-27T19:19:24.435Z,100453.00
2023-09-27T19:21:58.052Z,100443.00
2023-09-27T19:24:36.977Z,100447.00
2023-09-27T19:27:10.856Z,100451.00
2023-09-27T19:29:47.544Z,100446.00
2023-09-27T19:32:24.255Z,100442.00
2023-09-27T19:34:58.393Z,100437.00
2023-09-27T19:37:32.077Z,100430.00
2023-09-27T19:40:07.405Z,100434.00
2023-09-27T19:42:43.776Z,100426.00
2023-09-27T19:45:18.084Z,100428.00
2023-09-27T19:47:58.222Z,100420.00
2023-09-27T19:50:32.157Z,100419.00
2023-09-27T19:53:07.816Z,100410.00
2023-09-27T19:55:41.918Z,100416.00
2023-09-27T19:58:17.526Z,100401.00
2023-09-27T20:00:52.903Z,100404.00
2023-09-27T20:03:28.338Z,100400.00
2023-09-27T20:06:04.141Z,100406.00
2023-09-27T20:08:37.998Z,100405.00
2023-09-27T20:11:11.520Z,100399.00
2023-09-27T20:13:45.527Z,100399.00
2023-09-27T20:16:19.455Z,100388.00
2023-09-27T20:18:55.261Z,100397.00
2023-09-27T20:21:29.349Z,100390.00
2023-09-27T20:24:10.809Z,100388.00
2023-09-27T20:26:45.042Z,100397.00
2023-09-27T20:29:18.780Z,100404.00
2023-09-27T20:31:53.169Z,100406.00
2023-09-27T20:34:28.928Z,100398.00
2023-09-27T20:37:02.968Z,100403.00
2023-09-27T20:39:36.734Z,100404.00
2023-09-27T20:42:10.848Z,100398.00
2023-09-27T20:44:45.386Z,100385.00
2023-09-27T20:47:18.876Z,100390.00
2023-09-27T20:49:54.217Z,100399.00
2023-09-27T20:52:28.095Z,100403.00
2023-09-27T20:55:20.761Z,100386.00
2023-09-27T20:57:57.690Z,100386.00
2023-09-27T21:00:32.137Z,100396.00
2023-09-27T21:03:06.686Z,100384.00
2023-09-27T21:05:43.750Z,100381.00
2023-09-27T21:08:17.507Z,100377.00
2023-09-27T21:10:51.460Z,100380.00
2023-09-27T21:13:29.425Z,100380.00
2023-09-27T21:16:05.659Z,100393.00
2023-09-27T21:18:39.368Z,100383.00
2023-09-27T21:21:15.457Z,100380.00
2023-09-27T21:23:51.838Z,100386.00
2023-09-27T21:26:25.881Z,100394.00
2023-09-27T21:29:00.180Z,100382.00
2023-09-27T21:31:34.349Z,100378.00
2023-09-27T21:34:08.839Z,100368.00
2023-09-27T21:36:44.597Z,100361.00
2023-09-27T21:39:19.195Z,100353.00
2023-09-27T21:41:52.596Z,100353.00
2023-09-27T21:44:26.506Z,100352.00
2023-09-27T21:47:00.295Z,100351.00
2023-09-27T21:49:34.131Z,100341.00
2023-09-27T21:52:09.484Z,100319.00
2023-09-27T21:54:43.086Z,100333.00
2023-09-27T21:57:16.637Z,100338.00
2023-09-27T21:59:50.194Z,100321.00
2023-09-27T22:02:23.793Z,100312.00
2023-09-27T22:04:58.970Z,100316.00
2023-09-27T22:07:35.449Z,100315.00
2023-09-27T22:10:10.823Z,100311.00
2023-09-27T22:12:44.429Z,100307.00
2023-09-27T22:15:18.624Z,100324.00
2023-09-27T22:17:56.328Z,100324.00
2023-09-27T22:20:31.073Z,100330.00
2023-09-27T22:23:07.868Z,100318.00
2023-09-27T22:25:45.098Z,100321.00
2023-09-27T22:28:20.261Z,100319.00
2023-09-27T22:30:54.621Z,100316.00
2023-09-27T22:33:31.026Z,100320.00
2023-09-27T22:36:04.782Z,100313.00
2023-09-27T22:38:40.952Z,100331.00
2023-09-27T22:41:17.229Z,100288.00
2023-09-27T22:43:50.842Z,100259.00
2023-09-27T22:46:24.665Z,100283.00
2023-09-27T22:48:58.225Z,100285.00
2023-09-27T22:51:31.938Z,100272.00
2023-09-27T22:54:08.693Z,100268.00
2023-09-27T22:56:43.267Z,100255.00
2023-09-27T22:59:18.210Z,100273.00
2023-09-27T23:01:56.785Z,100274.00
2023-09-27T23:04:30.828Z,100282.00
2023-09-27T23:07:05.968Z,100273.00
2023-09-27T23:09:42.220Z,100280.00
2023-09-27T23:12:20.689Z,100282.00
2023-09-27T23:15:12.975Z,100273.00
2023-09-27T23:18:01.589Z,100277.00
2023-09-27T23:20:35.773Z,100285.00
2023-09-27T23:23:17.706Z,100283.00
2023-09-27T23:25:55.839Z,100287.00
2023-09-27T23:28:41.567Z,100295.00
2023-09-27T23:31:14.360Z,100287.00
2023-09-27T23:33:50.708Z,100283.00
2023-09-27T23:36:27.008Z,100283.00
2023-09-27T23:39:18.344Z,100280.00
2023-09-27T23:41:56.811Z,100271.00
2023-09-27T23:44:31.433Z,100271.00
2023-09-27T23:47:05.488Z,100274.00
2023-09-27T23:49:43.216Z,100264.00
2023-09-27T23:52:16.637Z,100276.00
2023-09-27T23:54:50.285Z,100272.00
2023-09-27T23:57:29.271Z,100287.00
